Forest Lakes, Arizona
Current Conditions -  °F | °C
As of 7:35 PM on Saturday 22 Nov 2014 (Local Time) from KSOW Reporting Station
Clear Clear  
Wind Chill: 32°   Ceiling: Unl
Heat Index: 41°   Visibility: 10mi
Dew Point: 18°   Wind: 17mph
Humidity: 39%   Direction: 180°S
Pressure: 30.04"   Gusts: NA
Location:  34.43°N, 110.6°W
Report Text: KSOW 230235Z AUTO 18015KT 10SM CLR 05/M08 A3004 RMK AO2
Loading
Personal Weather Stations






























Interactive Weather Map New forecast layout! Learn more

10-Day Weather Forecast

Advertisements
Track Severe Weather on mobile